Back to Top

Language: 

My Weather Underground Personal Weather Station Historical Data with Graphs...

Delerius Weather Station Historical Data
Daily Summary for December 3, 2017 Units:  Metric    English   Both
« Previous Day
Next Day »
Daily Weekly Monthly Yearly Custom
  High: Low: Average:
Temperature: 11 °C 3.6 °C 7.4 °C
Dew Point: 7.7 °C 2.4 °C 5.5 °C
Humidity: 94 % 71 % 88 %
Wind Speed: 17.7 km/h 0 km/h 7.2 km/h
Wind Gust: 25.7 km/h - -
Wind:- - WNW
Pressure: 1029.7 hPa 1023.6 hPa -
Precipitation: 0 mm    
Historical Graphs
 
 
Tabular Data for December 3, 2017
Time Temperature Dew Point Pressure Wind Wind Speed Wind Gust Humidity Rainfall Rate (Hourly) solar Conditions
00:05 7.7 °C 6.2 °C 1024.3 hPa WNW 12.9 km/h 17.7 km/h 90 % 0 mm 0 W/m2
00:15 7.7 °C 6.2 °C 1024.3 hPa WNW 14.5 km/h 22.5 km/h 90 % 0 mm 0 W/m2
00:20 7.7 °C 6.2 °C 1024.3 hPa WNW 11.3 km/h 16.1 km/h 90 % 0 mm 0 W/m2
00:25 7.8 °C 6.3 °C 1024.3 hPa WNW 12.9 km/h 22.5 km/h 90 % 0 mm 0 W/m2
00:30 7.8 °C 6.3 °C 1023.9 hPa WNW 14.5 km/h 19.3 km/h 90 % 0 mm 0 W/m2
00:40 7.8 °C 6.3 °C 1023.9 hPa WNW 14.5 km/h 19.3 km/h 90 % 0 mm 0 W/m2
00:45 7.8 °C 6.3 °C 1023.9 hPa WNW 14.5 km/h 20.9 km/h 90 % 0 mm 0 W/m2
00:50 7.8 °C 6.3 °C 1023.9 hPa WNW 14.5 km/h 22.5 km/h 90 % 0 mm 0 W/m2
00:55 7.8 °C 6.3 °C 1023.9 hPa WNW 12.9 km/h 19.3 km/h 90 % 0 mm 0 W/m2
01:00 7.8 °C 6.3 °C 1023.9 hPa WNW 12.9 km/h 17.7 km/h 90 % 0 mm 0 W/m2
01:10 7.8 °C 6.1 °C 1023.9 hPa WNW 14.5 km/h 22.5 km/h 89 % 0 mm 0 W/m2
01:20 7.8 °C 6.1 °C 1023.6 hPa WNW 11.3 km/h 17.7 km/h 89 % 0 mm 0 W/m2
01:30 7.8 °C 6.3 °C 1023.6 hPa WNW 12.9 km/h 19.3 km/h 90 % 0 mm 0 W/m2
01:35 7.9 °C 6.2 °C 1023.6 hPa WNW 12.9 km/h 17.7 km/h 89 % 0 mm 0 W/m2
01:40 7.9 °C 6.2 °C 1023.9 hPa WNW 11.3 km/h 16.1 km/h 89 % 0 mm 0 W/m2
01:50 8 °C 6.3 °C 1023.6 hPa WNW 14.5 km/h 20.9 km/h 89 % 0 mm 0 W/m2
02:05 8.1 °C 6.4 °C 1023.6 hPa WNW 14.5 km/h 19.3 km/h 89 % 0 mm 0 W/m2
02:10 8.1 °C 6.4 °C 1023.6 hPa WNW 12.9 km/h 17.7 km/h 89 % 0 mm 0 W/m2
02:15 8.2 °C 6.5 °C 1023.6 hPa WNW 14.5 km/h 20.9 km/h 89 % 0 mm 0 W/m2
02:20 8.2 °C 6.5 °C 1023.6 hPa WNW 14.5 km/h 20.9 km/h 89 % 0 mm 0 W/m2
02:25 8.2 °C 6.7 °C 1023.6 hPa WNW 14.5 km/h 24.1 km/h 90 % 0 mm 0 W/m2
02:36 8.3 °C 6.8 °C 1023.6 hPa WNW 16.1 km/h 25.7 km/h 90 % 0 mm 0 W/m2
02:41 8.3 °C 6.8 °C 1023.6 hPa WNW 14.5 km/h 20.9 km/h 90 % 0 mm 0 W/m2
02:46 8.3 °C 6.8 °C 1023.6 hPa WNW 16.1 km/h 24.1 km/h 90 % 0 mm 0 W/m2
02:51 8.3 °C 6.8 °C 1023.6 hPa WNW 16.1 km/h 24.1 km/h 90 % 0 mm 0 W/m2
02:56 8.3 °C 6.8 °C 1023.6 hPa WNW 16.1 km/h 25.7 km/h 90 % 0 mm 0 W/m2
03:00 8.3 °C 6.8 °C 1023.9 hPa WNW 17.7 km/h 24.1 km/h 90 % 0 mm 0 W/m2
03:05 8.3 °C 6.8 °C 1023.9 hPa WNW 11.3 km/h 17.7 km/h 90 % 0 mm 0 W/m2
03:10 8.2 °C 6.7 °C 1023.9 hPa WNW 14.5 km/h 19.3 km/h 90 % 0 mm 0 W/m2
03:15 8.2 °C 6.8 °C 1023.6 hPa WNW 14.5 km/h 22.5 km/h 91 % 0 mm 0 W/m2
03:20 8.2 °C 6.8 °C 1023.9 hPa WNW 14.5 km/h 20.9 km/h 91 % 0 mm 0 W/m2
03:25 8.2 °C 6.8 °C 1023.6 hPa WNW 12.9 km/h 16.1 km/h 91 % 0 mm 0 W/m2
03:30 8.2 °C 6.8 °C 1023.9 hPa WNW 14.5 km/h 24.1 km/h 91 % 0 mm 0 W/m2
03:35 8.2 °C 6.8 °C 1023.9 hPa WNW 11.3 km/h 20.9 km/h 91 % 0 mm 0 W/m2
03:40 8.2 °C 6.8 °C 1023.9 hPa WNW 11.3 km/h 19.3 km/h 91 % 0 mm 0 W/m2
03:45 8.1 °C 6.7 °C 1023.9 hPa WNW 14.5 km/h 22.5 km/h 91 % 0 mm 0 W/m2
03:50 8.1 °C 6.7 °C 1023.6 hPa WNW 14.5 km/h 20.9 km/h 91 % 0 mm 0 W/m2
03:55 8.1 °C 6.7 °C 1023.6 hPa WNW 14.5 km/h 24.1 km/h 91 % 0 mm 0 W/m2
04:00 8.1 °C 6.7 °C 1023.6 hPa WNW 12.9 km/h 20.9 km/h 91 % 0 mm 0 W/m2
04:05 8.1 °C 6.9 °C 1023.6 hPa WNW 14.5 km/h 19.3 km/h 92 % 0 mm 0 W/m2
04:10 8.1 °C 6.9 °C 1023.6 hPa WNW 14.5 km/h 20.9 km/h 92 % 0 mm 0 W/m2
04:15 8.1 °C 6.9 °C 1023.6 hPa WNW 12.9 km/h 16.1 km/h 92 % 0 mm 0 W/m2
04:20 8.2 °C 7 °C 1023.6 hPa WNW 14.5 km/h 17.7 km/h 92 % 0 mm 0 W/m2
04:25 8.2 °C 7 °C 1023.6 hPa WNW 11.3 km/h 19.3 km/h 92 % 0 mm 0 W/m2
04:30 8.2 °C 7 °C 1023.6 hPa WNW 12.9 km/h 17.7 km/h 92 % 0 mm 0 W/m2
04:35 8.3 °C 7.1 °C 1023.6 hPa WNW 12.9 km/h 24.1 km/h 92 % 0 mm 0 W/m2
04:40 8.3 °C 7.1 °C 1023.9 hPa WNW 12.9 km/h 24.1 km/h 92 % 0 mm 0 W/m2
04:45 8.4 °C 7.2 °C 1023.9 hPa NW 11.3 km/h 17.7 km/h 92 % 0 mm 0 W/m2
05:01 8.5 °C 7.3 °C 1023.9 hPa WNW 11.3 km/h 17.7 km/h 92 % 0 mm 0 W/m2
05:16 8.6 °C 7.2 °C 1023.9 hPa WNW 11.3 km/h 17.7 km/h 91 % 0 mm 0 W/m2
05:21 8.6 °C 7.2 °C 1023.9 hPa WNW 9.7 km/h 17.7 km/h 91 % 0 mm 0 W/m2
05:26 8.6 °C 7.4 °C 1023.9 hPa WNW 12.9 km/h 20.9 km/h 92 % 0 mm 0 W/m2
05:31 8.6 °C 7.2 °C 1023.9 hPa WNW 9.7 km/h 16.1 km/h 91 % 0 mm 0 W/m2
05:36 8.6 °C 7.2 °C 1023.9 hPa WNW 9.7 km/h 14.5 km/h 91 % 0 mm 0 W/m2
05:41 8.6 °C 7.2 °C 1023.9 hPa WNW 8 km/h 16.1 km/h 91 % 0 mm 0 W/m2
05:46 8.6 °C 7.2 °C 1023.9 hPa WNW 9.7 km/h 14.5 km/h 91 % 0 mm 0 W/m2
05:51 8.6 °C 7.2 °C 1023.9 hPa WNW 9.7 km/h 12.9 km/h 91 % 0 mm 0 W/m2
05:56 8.6 °C 7.2 °C 1024.3 hPa WNW 9.7 km/h 14.5 km/h 91 % 0 mm 0 W/m2
06:01 8.5 °C 7.1 °C 1024.3 hPa WNW 12.9 km/h 16.1 km/h 91 % 0 mm 0 W/m2
06:16 8.5 °C 7.3 °C 1024.3 hPa WNW 8 km/h 12.9 km/h 92 % 0 mm 0 W/m2
06:26 8.4 °C 7.2 °C 1024.3 hPa NW 9.7 km/h 16.1 km/h 92 % 0 mm 0 W/m2
06:31 8.5 °C 7.3 °C 1024.3 hPa WNW 9.7 km/h 16.1 km/h 92 % 0 mm 0 W/m2
06:36 8.5 °C 7.3 °C 1024.3 hPa WNW 9.7 km/h 16.1 km/h 92 % 0 mm 0 W/m2
06:46 8.5 °C 7.3 °C 1024.3 hPa WNW 12.9 km/h 19.3 km/h 92 % 0 mm 0 W/m2
06:51 8.5 °C 7.3 °C 1024.3 hPa WNW 12.9 km/h 19.3 km/h 92 % 0 mm 0 W/m2
06:56 8.5 °C 7.3 °C 1024.6 hPa WNW 12.9 km/h 22.5 km/h 92 % 0 mm 0 W/m2
07:01 8.5 °C 7.3 °C 1024.6 hPa WNW 12.9 km/h 20.9 km/h 92 % 0 mm 0 W/m2
07:11 8.4 °C 7.2 °C 1024.6 hPa NW 9.7 km/h 16.1 km/h 92 % 0 mm 0 W/m2
07:21 8.4 °C 7.2 °C 1024.6 hPa WNW 12.9 km/h 20.9 km/h 92 % 0 mm 0 W/m2
07:26 8.4 °C 7.2 °C 1024.6 hPa WNW 11.3 km/h 17.7 km/h 92 % 0 mm 0 W/m2
07:31 8.4 °C 7.3 °C 1024.6 hPa WNW 14.5 km/h 22.5 km/h 93 % 0 mm 0 W/m2
07:46 8.6 °C 7.6 °C 1024.9 hPa WNW 11.3 km/h 16.1 km/h 93 % 0 mm 0 W/m2
07:51 8.6 °C 7.6 °C 1024.9 hPa WNW 8 km/h 12.9 km/h 93 % 0 mm 0 W/m2
07:56 8.6 °C 7.6 °C 1024.9 hPa WNW 8 km/h 14.5 km/h 93 % 0 mm 0 W/m2
08:01 8.5 °C 7.4 °C 1024.9 hPa WNW 8 km/h 12.9 km/h 93 % 0 mm 0 W/m2
08:06 8.5 °C 7.4 °C 1024.9 hPa WNW 3.2 km/h 8 km/h 93 % 0 mm 0 W/m2
08:11 8.4 °C 7.3 °C 1025.3 hPa NW 6.4 km/h 9.7 km/h 93 % 0 mm 5 W/m2
08:21 8.4 °C 7.3 °C 1025.3 hPa NW 6.4 km/h 11.3 km/h 93 % 0 mm 7 W/m2
08:31 8.4 °C 7.3 °C 1025.3 hPa WNW 6.4 km/h 9.7 km/h 93 % 0 mm 11 W/m2
08:41 8.4 °C 7.5 °C 1025.6 hPa WNW 6.4 km/h 9.7 km/h 94 % 0 mm 18 W/m2
08:46 8.4 °C 7.5 °C 1025.6 hPa NW 3.2 km/h 8 km/h 94 % 0 mm 23 W/m2
09:01 8.4 °C 7.5 °C 1025.6 hPa Calm   1.6 km/h 94 % 0 mm 30 W/m2
09:06 8.4 °C 7.5 °C 1026 hPa Calm   1.6 km/h 94 % 0 mm 40 W/m2
09:11 8.4 °C 7.5 °C 1026 hPa WNW 4.8 km/h 8 km/h 94 % 0 mm 35 W/m2
09:16 8.5 °C 7.6 °C 1026 hPa WNW 4.8 km/h 8 km/h 94 % 0 mm 30 W/m2
09:31 8.6 °C 7.7 °C 1026 hPa WNW 6.4 km/h 11.3 km/h 94 % 0 mm 35 W/m2
09:36 8.6 °C 7.7 °C 1026 hPa WNW 6.4 km/h 11.3 km/h 94 % 0 mm 26 W/m2
09:46 8.6 °C 7.6 °C 1026 hPa NW 8 km/h 12.9 km/h 93 % 0 mm 32 W/m2
09:51 8.6 °C 7.6 °C 1026 hPa NW 6.4 km/h 9.7 km/h 93 % 0 mm 37 W/m2
09:57 8.7 °C 7.6 °C 1026.3 hPa NW 8 km/h 12.9 km/h 93 % 0 mm 46 W/m2
10:02 8.7 °C 7.6 °C 1026 hPa WNW 8 km/h 11.3 km/h 93 % 0 mm 51 W/m2
10:07 8.7 °C 7.5 °C 1026.3 hPa NW 8 km/h 11.3 km/h 92 % 0 mm 49 W/m2
10:12 8.8 °C 7.6 °C 1026.3 hPa WNW 8 km/h 14.5 km/h 92 % 0 mm 58 W/m2
10:17 8.9 °C 7.7 °C 1026.3 hPa NW 9.7 km/h 12.9 km/h 92 % 0 mm 46 W/m2
10:22 8.9 °C 7.5 °C 1026.3 hPa NW 6.4 km/h 11.3 km/h 91 % 0 mm 44 W/m2
10:27 9 °C 7.6 °C 1026.3 hPa WNW 4.8 km/h 12.9 km/h 91 % 0 mm 28 W/m2
10:32 9.1 °C 7.7 °C 1026.3 hPa NW 3.2 km/h 8 km/h 91 % 0 mm 28 W/m2
10:42 9.1 °C 7.7 °C 1026.3 hPa WNW 3.2 km/h 8 km/h 91 % 0 mm 49 W/m2
10:47 9.1 °C 7.6 °C 1026.3 hPa NW 6.4 km/h 11.3 km/h 90 % 0 mm 60 W/m2
10:52 9.1 °C 7.6 °C 1026.6 hPa NW 9.7 km/h 12.9 km/h 90 % 0 mm 58 W/m2
10:57 9.2 °C 7.7 °C 1026.6 hPa WNW 6.4 km/h 9.7 km/h 90 % 0 mm 49 W/m2
11:02 9.2 °C 7.7 °C 1026.6 hPa NW 6.4 km/h 11.3 km/h 90 % 0 mm 62 W/m2
11:07 9.2 °C 7.5 °C 1026.6 hPa NW 3.2 km/h 8 km/h 89 % 0 mm 60 W/m2
11:12 9.3 °C 7.6 °C 1026.6 hPa NW 4.8 km/h 11.3 km/h 89 % 0 mm 69 W/m2
11:17 9.3 °C 7.4 °C 1026.6 hPa NNW 8 km/h 12.9 km/h 88 % 0 mm 63 W/m2
11:22 9.3 °C 7.2 °C 1026.6 hPa NNW 12.9 km/h 19.3 km/h 87 % 0 mm 62 W/m2
11:27 9.3 °C 7.2 °C 1026.6 hPa North 9.7 km/h 17.7 km/h 87 % 0 mm 91 W/m2
11:32 9.3 °C 7.2 °C 1026.6 hPa North 6.4 km/h 11.3 km/h 87 % 0 mm 77 W/m2
11:37 9.3 °C 7.2 °C 1026.6 hPa NNE 1.6 km/h 8 km/h 87 % 0 mm 118 W/m2
11:42 9.3 °C 7.2 °C 1026.6 hPa NE 8 km/h 12.9 km/h 87 % 0 mm 95 W/m2
11:47 9.3 °C 7.1 °C 1026.6 hPa NNE 9.7 km/h 12.9 km/h 86 % 0 mm 116 W/m2
11:52 9.3 °C 7.1 °C 1026.6 hPa NNE 8 km/h 12.9 km/h 86 % 0 mm 116 W/m2
11:57 9.3 °C 6.9 °C 1026.6 hPa North 8 km/h 11.3 km/h 85 % 0 mm 83 W/m2
12:02 9.3 °C 6.7 °C 1026.6 hPa North 4.8 km/h 11.3 km/h 84 % 0 mm 91 W/m2
12:07 9.3 °C 6.6 °C 1026.6 hPa North 3.2 km/h 9.7 km/h 83 % 0 mm 109 W/m2
12:12 9.3 °C 6.6 °C 1026.6 hPa NNW 4.8 km/h 9.7 km/h 83 % 0 mm 118 W/m2
12:17 9.4 °C 6.5 °C 1026.6 hPa NNW 6.4 km/h 11.3 km/h 82 % 0 mm 121 W/m2
12:22 9.4 °C 6.5 °C 1026.6 hPa North 6.4 km/h 9.7 km/h 82 % 0 mm 102 W/m2
12:27 9.5 °C 6.4 °C 1026.6 hPa NNW 1.6 km/h 6.4 km/h 81 % 0 mm 146 W/m2
12:32 9.6 °C 6.5 °C 1026.6 hPa NNW 8 km/h 11.3 km/h 81 % 0 mm 221 W/m2
12:37 9.6 °C 6.3 °C 1026.3 hPa NNW 4.8 km/h 8 km/h 80 % 0 mm 132 W/m2
12:42 9.7 °C 6.2 °C 1026.6 hPa NNW 4.8 km/h 9.7 km/h 79 % 0 mm 272 W/m2
12:47 9.8 °C 6.3 °C 1026.6 hPa NW 1.6 km/h 6.4 km/h 79 % 0 mm 95 W/m2
12:52 9.8 °C 6.2 °C 1026.6 hPa NW 4.8 km/h 8 km/h 78 % 0 mm 91 W/m2
12:57 9.8 °C 5.9 °C 1026.6 hPa NW 1.6 km/h 6.4 km/h 77 % 0 mm 216 W/m2
13:02 9.9 °C 6.1 °C 1026.6 hPa Calm     77 % 0 mm 118 W/m2
13:07 10.1 °C 6.1 °C 1026.6 hPa NW 1.6 km/h 6.4 km/h 76 % 0 mm 225 W/m2
13:12 10.3 °C 6.3 °C 1026.6 hPa NW 3.2 km/h 8 km/h 76 % 0 mm 220 W/m2
13:17 10.4 °C 5.8 °C 1026.6 hPa NNW 6.4 km/h 9.7 km/h 73 % 0 mm 207 W/m2
13:22 10.5 °C 5.9 °C 1026.6 hPa NW 4.8 km/h 8 km/h 73 % 0 mm 204 W/m2
13:27 10.6 °C 5.8 °C 1026.6 hPa North 1.6 km/h 4.8 km/h 72 % 0 mm 197 W/m2
13:32 10.9 °C 5.8 °C 1026.6 hPa NW 4.8 km/h 9.7 km/h 71 % 0 mm 192 W/m2
13:37 10.8 °C 5.7 °C 1026.6 hPa NNW 4.8 km/h 6.4 km/h 71 % 0 mm 197 W/m2
13:42 10.9 °C 6.1 °C 1026.6 hPa NW 6.4 km/h 9.7 km/h 72 % 0 mm 183 W/m2
13:45 10.9 °C 6.1 °C 1026.6 hPa WNW 6.4 km/h 11.3 km/h 72 % 0 mm 181 W/m2
13:50 10.9 °C 6.1 °C 1026.6 hPa Calm   4.8 km/h 72 % 0 mm 174 W/m2
13:55 11 °C 6.2 °C 1026.6 hPa NW 6.4 km/h 11.3 km/h 72 % 0 mm 178 W/m2
14:00 11 °C 5.9 °C 1026.6 hPa WNW 6.4 km/h 9.7 km/h 71 % 0 mm 174 W/m2
14:05 11 °C 6.2 °C 1026.6 hPa NW 1.6 km/h 8 km/h 72 % 0 mm 111 W/m2
14:10 10.9 °C 5.8 °C 1026.6 hPa WNW 8 km/h 9.7 km/h 71 % 0 mm 163 W/m2
14:15 10.9 °C 5.8 °C 1026.6 hPa NW 6.4 km/h 9.7 km/h 71 % 0 mm 149 W/m2
14:20 10.9 °C 6.1 °C 1026.6 hPa NW 4.8 km/h 9.7 km/h 72 % 0 mm 142 W/m2
14:25 10.8 °C 5.9 °C 1026.6 hPa NW 3.2 km/h 8 km/h 72 % 0 mm 69 W/m2
14:30 10.7 °C 5.8 °C 1026.6 hPa NW 3.2 km/h 8 km/h 72 % 0 mm 42 W/m2
14:35 10.5 °C 5.7 °C 1026.6 hPa NW 1.6 km/h 8 km/h 72 % 0 mm 47 W/m2
14:40 10.3 °C 5.7 °C 1027 hPa West 1.6 km/h 6.4 km/h 73 % 0 mm 40 W/m2
14:45 10.2 °C 5.8 °C 1027 hPa Calm   3.2 km/h 74 % 0 mm 37 W/m2
14:50 10 °C 5.8 °C 1027 hPa West 3.2 km/h 8 km/h 75 % 0 mm 28 W/m2
14:55 9.8 °C 5.6 °C 1027 hPa West 3.2 km/h 8 km/h 75 % 0 mm 30 W/m2
15:00 9.7 °C 5.7 °C 1027 hPa Calm   3.2 km/h 76 % 0 mm 30 W/m2
15:01 9.7 °C 5.7 °C 1027 hPa Calm   3.2 km/h 76 % 0 mm 32 W/m2
15:06 9.6 °C 5.8 °C 1027 hPa West 1.6 km/h 3.2 km/h 77 % 0 mm 30 W/m2
15:11 9.5 °C 5.7 °C 1027 hPa Calm     77 % 0 mm 26 W/m2
15:16 9.4 °C 5.8 °C 1027 hPa Calm     78 % 0 mm 19 W/m2
15:21 9.3 °C 5.7 °C 1027 hPa Calm     78 % 0 mm 16 W/m2
15:26 9.2 °C 5.7 °C 1027 hPa Calm     79 % 0 mm 12 W/m2
15:31 9.1 °C 5.7 °C 1027 hPa Calm     79 % 0 mm 11 W/m2
15:36 9 °C 5.6 °C 1027 hPa Calm   1.6 km/h 79 % 0 mm 9 W/m2
15:41 8.8 °C 5.3 °C 1027 hPa Calm     79 % 0 mm 7 W/m2
15:46 8.7 °C 5.3 °C 1027 hPa Calm     79 % 0 mm 5 W/m2
15:51 8.4 °C 5.2 °C 1027 hPa Calm     80 % 0 mm 5 W/m2
15:56 8.2 °C 4.9 °C 1027 hPa Calm     80 % 0 mm 0 W/m2
16:01 8 °C 4.9 °C 1027 hPa Calm     81 % 0 mm 0 W/m2
16:06 7.8 °C 4.7 °C 1027 hPa Calm     81 % 0 mm 0 W/m2
16:11 7.6 °C 4.7 °C 1027.3 hPa Calm     82 % 0 mm 0 W/m2
16:16 7.3 °C 4.6 °C 1027.3 hPa Calm     83 % 0 mm 0 W/m2
16:21 7.2 °C 4.5 °C 1027.3 hPa Calm     83 % 0 mm 0 W/m2
16:26 7 °C 4.5 °C 1027.3 hPa Calm   1.6 km/h 84 % 0 mm 0 W/m2
16:27 6.9 °C 4.4 °C 1027.3 hPa Calm     84 % 0 mm 0 W/m2
16:32 6.8 °C 4.3 °C 1027.3 hPa Calm   8 km/h 84 % 0 mm 0 W/m2
16:37 6.6 °C 4.3 °C 1027.3 hPa NW 4.8 km/h 8 km/h 85 % 0 mm 0 W/m2
16:42 6.5 °C 4.3 °C 1027.3 hPa Calm   3.2 km/h 86 % 0 mm 0 W/m2
16:47 6.4 °C 4.2 °C 1027.3 hPa Calm     86 % 0 mm 0 W/m2
16:52 6.2 °C 4.1 °C 1027.7 hPa Calm     86 % 0 mm 0 W/m2
16:57 6 °C 3.8 °C 1027.7 hPa Calm     86 % 0 mm 0 W/m2
17:02 5.8 °C 3.8 °C 1027.7 hPa NW 3.2 km/h 6.4 km/h 87 % 0 mm 0 W/m2
17:07 5.8 °C 3.9 °C 1027.7 hPa WNW 4.8 km/h 9.7 km/h 88 % 0 mm 0 W/m2
17:12 5.8 °C 3.9 °C 1027.7 hPa NW 4.8 km/h 8 km/h 88 % 0 mm 0 W/m2
17:17 5.7 °C 4 °C 1027.7 hPa NW 4.8 km/h 8 km/h 89 % 0 mm 0 W/m2
17:22 5.7 °C 4 °C 1027.7 hPa WNW 3.2 km/h 6.4 km/h 89 % 0 mm 0 W/m2
17:27 5.6 °C 3.9 °C 1027.7 hPa WNW 1.6 km/h 6.4 km/h 89 % 0 mm 0 W/m2
17:32 5.6 °C 4.1 °C 1028 hPa WNW 4.8 km/h 8 km/h 90 % 0 mm 0 W/m2
17:37 5.6 °C 4.1 °C 1028 hPa WNW 6.4 km/h 9.7 km/h 90 % 0 mm 0 W/m2
17:42 5.7 °C 4.2 °C 1028 hPa WNW 6.4 km/h 9.7 km/h 90 % 0 mm 0 W/m2
17:47 5.7 °C 4.2 °C 1028 hPa NW 4.8 km/h 9.7 km/h 90 % 0 mm 0 W/m2
17:52 5.7 °C 4.2 °C 1028 hPa WNW 6.4 km/h 8 km/h 90 % 0 mm 0 W/m2
17:57 5.7 °C 4.2 °C 1028 hPa WNW 3.2 km/h 6.4 km/h 90 % 0 mm 0 W/m2
18:02 5.6 °C 4.1 °C 1028.3 hPa WNW 4.8 km/h 8 km/h 90 % 0 mm 0 W/m2
18:07 5.5 °C 4 °C 1028.3 hPa WNW 1.6 km/h 3.2 km/h 90 % 0 mm 0 W/m2
18:12 5.4 °C 3.9 °C 1028.3 hPa WNW 3.2 km/h 6.4 km/h 90 % 0 mm 0 W/m2
18:17 5.3 °C 3.8 °C 1028.3 hPa Calm   1.6 km/h 90 % 0 mm 0 W/m2
18:18 5.3 °C 3.8 °C 1028.3 hPa Calm     90 % 0 mm 0 W/m2
18:23 5.2 °C 3.7 °C 1028.3 hPa Calm   1.6 km/h 90 % 0 mm 0 W/m2
18:28 5.1 °C 3.6 °C 1028.3 hPa Calm     90 % 0 mm 0 W/m2
18:33 5 °C 3.5 °C 1028.3 hPa WNW 1.6 km/h 3.2 km/h 90 % 0 mm 0 W/m2
18:38 4.9 °C 3.4 °C 1028.3 hPa Calm   3.2 km/h 90 % 0 mm 0 W/m2
18:43 4.7 °C 3.2 °C 1028.3 hPa Calm   1.6 km/h 90 % 0 mm 0 W/m2
18:48 4.6 °C 3.1 °C 1028.3 hPa WNW 1.6 km/h 6.4 km/h 90 % 0 mm 0 W/m2
18:53 4.5 °C 3.2 °C 1028.3 hPa WNW 3.2 km/h 4.8 km/h 91 % 0 mm 0 W/m2
18:58 4.4 °C 3.1 °C 1028.3 hPa WNW 3.2 km/h 6.4 km/h 91 % 0 mm 0 W/m2
19:03 4.4 °C 3.1 °C 1028 hPa Calm     91 % 0 mm 0 W/m2
19:08 4.3 °C 2.9 °C 1028 hPa Calm     91 % 0 mm 0 W/m2
19:13 4.2 °C 2.9 °C 1028.3 hPa Calm     91 % 0 mm 0 W/m2
19:18 4.1 °C 2.8 °C 1028.3 hPa Calm   3.2 km/h 91 % 0 mm 0 W/m2
19:23 3.9 °C 2.6 °C 1028.3 hPa WNW 8 km/h 11.3 km/h 91 % 0 mm 0 W/m2
19:28 3.9 °C 2.7 °C 1028.3 hPa NW 6.4 km/h 9.7 km/h 92 % 0 mm 0 W/m2
19:33 3.9 °C 2.7 °C 1028.3 hPa NW 6.4 km/h 9.7 km/h 92 % 0 mm 0 W/m2
19:38 3.9 °C 2.7 °C 1028.3 hPa NW 4.8 km/h 8 km/h 92 % 0 mm 0 W/m2
19:43 3.9 °C 2.9 °C 1028.3 hPa WNW 1.6 km/h 6.4 km/h 93 % 0 mm 0 W/m2
19:48 3.9 °C 2.7 °C 1028.3 hPa WNW 3.2 km/h 6.4 km/h 92 % 0 mm 0 W/m2
19:53 3.8 °C 2.6 °C 1028.3 hPa WNW 4.8 km/h 8 km/h 92 % 0 mm 0 W/m2
19:58 3.7 °C 2.5 °C 1028.3 hPa WNW 4.8 km/h 6.4 km/h 92 % 0 mm 0 W/m2
20:03 3.7 °C 2.5 °C 1028.3 hPa West 6.4 km/h 8 km/h 92 % 0 mm 0 W/m2
20:08 3.6 °C 2.4 °C 1028.7 hPa West 4.8 km/h 8 km/h 92 % 0 mm 0 W/m2
20:09 3.6 °C 2.4 °C 1028.3 hPa West 4.8 km/h 8 km/h 92 % 0 mm 0 W/m2
20:14 3.6 °C 2.6 °C 1028.7 hPa West 3.2 km/h 8 km/h 93 % 0 mm 0 W/m2
20:19 3.6 °C 2.6 °C 1028.7 hPa West 6.4 km/h 8 km/h 93 % 0 mm 0 W/m2
20:24 3.6 °C 2.6 °C 1028.7 hPa WNW 8 km/h 9.7 km/h 93 % 0 mm 0 W/m2
20:29 3.6 °C 2.6 °C 1028.7 hPa WNW 6.4 km/h 8 km/h 93 % 0 mm 0 W/m2
20:34 3.6 °C 2.6 °C 1028.7 hPa WNW 3.2 km/h 6.4 km/h 93 % 0 mm 0 W/m2
20:39 3.6 °C 2.6 °C 1028.7 hPa WNW 6.4 km/h 8 km/h 93 % 0 mm 0 W/m2
20:44 3.6 °C 2.6 °C 1028.7 hPa WNW 6.4 km/h 9.7 km/h 93 % 0 mm 0 W/m2
20:49 3.7 °C 2.8 °C 1028.7 hPa WNW 6.4 km/h 8 km/h 94 % 0 mm 0 W/m2
20:54 3.7 °C 2.8 °C 1028.7 hPa WNW 9.7 km/h 12.9 km/h 94 % 0 mm 0 W/m2
20:59 3.9 °C 3 °C 1028.7 hPa WNW 8 km/h 12.9 km/h 94 % 0 mm 0 W/m2
21:04 4.1 °C 3.2 °C 1029 hPa WNW 8 km/h 11.3 km/h 94 % 0 mm 0 W/m2
21:09 4.2 °C 3.3 °C 1029 hPa WNW 8 km/h 12.9 km/h 94 % 0 mm 0 W/m2
21:14 4.3 °C 3.4 °C 1029 hPa WNW 6.4 km/h 9.7 km/h 94 % 0 mm 0 W/m2
21:19 4.3 °C 3.3 °C 1029 hPa WNW 8 km/h 12.9 km/h 93 % 0 mm 0 W/m2
21:24 4.3 °C 3.3 °C 1029 hPa NW 9.7 km/h 17.7 km/h 93 % 0 mm 0 W/m2
21:29 4.5 °C 3.4 °C 1029 hPa WNW 9.7 km/h 14.5 km/h 93 % 0 mm 0 W/m2
21:34 4.6 °C 3.6 °C 1029 hPa WNW 12.9 km/h 17.7 km/h 93 % 0 mm 0 W/m2
21:39 4.7 °C 3.7 °C 1029 hPa WNW 11.3 km/h 16.1 km/h 93 % 0 mm 0 W/m2
21:44 4.8 °C 3.8 °C 1029 hPa WNW 11.3 km/h 17.7 km/h 93 % 0 mm 0 W/m2
21:49 4.9 °C 3.7 °C 1029 hPa WNW 11.3 km/h 17.7 km/h 92 % 0 mm 0 W/m2
21:54 5 °C 3.8 °C 1029 hPa WNW 11.3 km/h 19.3 km/h 92 % 0 mm 0 W/m2
21:59 5.1 °C 3.8 °C 1029 hPa WNW 9.7 km/h 17.7 km/h 91 % 0 mm 0 W/m2
22:04 5.1 °C 3.8 °C 1029 hPa WNW 11.3 km/h 19.3 km/h 91 % 0 mm 0 W/m2
22:09 5.1 °C 3.8 °C 1029 hPa WNW 12.9 km/h 20.9 km/h 91 % 0 mm 0 W/m2
22:14 5.1 °C 3.6 °C 1029 hPa WNW 12.9 km/h 19.3 km/h 90 % 0 mm 0 W/m2
22:19 5.2 °C 3.7 °C 1029 hPa WNW 12.9 km/h 17.7 km/h 90 % 0 mm 0 W/m2
22:24 5.1 °C 3.6 °C 1029 hPa WNW 12.9 km/h 17.7 km/h 90 % 0 mm 0 W/m2
22:29 5.1 °C 3.6 °C 1029 hPa WNW 12.9 km/h 20.9 km/h 90 % 0 mm 0 W/m2
22:34 5.1 °C 3.6 °C 1029 hPa WNW 11.3 km/h 16.1 km/h 90 % 0 mm 0 W/m2
22:39 5 °C 3.5 °C 1029 hPa WNW 9.7 km/h 14.5 km/h 90 % 0 mm 0 W/m2
22:44 4.9 °C 3.4 °C 1029 hPa WNW 9.7 km/h 14.5 km/h 90 % 0 mm 0 W/m2
22:49 4.9 °C 3.4 °C 1029.3 hPa WNW 8 km/h 12.9 km/h 90 % 0 mm 0 W/m2
22:54 4.8 °C 3.2 °C 1029.3 hPa WNW 8 km/h 12.9 km/h 89 % 0 mm 0 W/m2
22:59 4.7 °C 3.2 °C 1029.3 hPa WNW 9.7 km/h 12.9 km/h 90 % 0 mm 0 W/m2
23:04 4.6 °C 3.1 °C 1029.3 hPa NW 8 km/h 11.3 km/h 90 % 0 mm 0 W/m2
23:09 4.6 °C 3.1 °C 1029.3 hPa NW 9.7 km/h 16.1 km/h 90 % 0 mm 0 W/m2
23:14 4.6 °C 3.3 °C 1029.3 hPa WNW 11.3 km/h 17.7 km/h 91 % 0 mm 0 W/m2
23:19 4.6 °C 3.3 °C 1029.3 hPa WNW 9.7 km/h 14.5 km/h 91 % 0 mm 0 W/m2
23:20 4.6 °C 3.3 °C 1029.3 hPa WNW 9.7 km/h 14.5 km/h 91 % 0 mm 0 W/m2
23:25 4.6 °C 3.3 °C 1029.3 hPa WNW 8 km/h 12.9 km/h 91 % 0 mm 0 W/m2
23:30 4.6 °C 3.3 °C 1029.3 hPa WNW 8 km/h 11.3 km/h 91 % 0 mm 0 W/m2
23:35 4.5 °C 3 °C 1029.3 hPa WNW 9.7 km/h 12.9 km/h 90 % 0 mm 0 W/m2
23:40 4.4 °C 3.1 °C 1029.7 hPa WNW 9.7 km/h 16.1 km/h 91 % 0 mm 0 W/m2
23:45 4.4 °C 3.1 °C 1029.7 hPa NW 9.7 km/h 12.9 km/h 91 % 0 mm 0 W/m2
23:50 4.3 °C 2.9 °C 1029.7 hPa NW 6.4 km/h 11.3 km/h 91 % 0 mm 0 W/m2
23:55 4.3 °C 2.9 °C 1029.7 hPa WNW 8 km/h 11.3 km/h 91 % 0 mm 0 W/m2
Delerius-Weather
Compliments of Weather Underground - 2.25 mb

Data updates at regular intervals.